sensor_id;sensor_type;location;lat;lon;timestamp;temperature;humidity
21037;DHT22;10677;50.942;4.028;2023-02-12T00:00:35;10.10;99.90
21037;DHT22;10677;50.942;4.028;2023-02-12T00:03:01;10.00;99.90
21037;DHT22;10677;50.942;4.028;2023-02-12T00:05:27;10.10;99.90
21037;DHT22;10677;50.942;4.028;2023-02-12T00:07:53;10.00;99.90
21037;DHT22;10677;50.942;4.028;2023-02-12T00:10:18;9.90;99.90
21037;DHT22;10677;50.942;4.028;2023-02-12T00:12:44;9.80;99.90
21037;DHT22;10677;50.942;4.028;2023-02-12T00:15:10;9.70;99.90
21037;DHT22;10677;50.942;4.028;2023-02-12T00:17:35;9.90;99.90
21037;DHT22;10677;50.942;4.028;2023-02-12T00:20:01;10.00;99.90
21037;DHT22;10677;50.942;4.028;2023-02-12T00:22:26;10.00;99.90
21037;DHT22;10677;50.942;4.028;2023-02-12T00:24:54;9.90;99.90
21037;DHT22;10677;50.942;4.028;2023-02-12T00:27:20;10.00;99.90
21037;DHT22;10677;50.942;4.028;2023-02-12T00:29:45;10.00;99.90
21037;DHT22;10677;50.942;4.028;2023-02-12T00:32:12;10.10;99.90
21037;DHT22;10677;50.942;4.028;2023-02-12T00:34:39;10.20;99.90
21037;DHT22;10677;50.942;4.028;2023-02-12T00:37:05;10.30;99.90
21037;DHT22;10677;50.942;4.028;2023-02-12T00:39:31;10.20;99.90
21037;DHT22;10677;50.942;4.028;2023-02-12T00:41:58;10.10;99.90
21037;DHT22;10677;50.942;4.028;2023-02-12T00:44:23;10.20;99.90
21037;DHT22;10677;50.942;4.028;2023-02-12T00:46:49;10.20;99.90
21037;DHT22;10677;50.942;4.028;2023-02-12T00:49:14;10.00;99.90
21037;DHT22;10677;50.942;4.028;2023-02-12T00:51:40;10.10;99.90
21037;DHT22;10677;50.942;4.028;2023-02-12T00:54:06;10.20;99.90
21037;DHT22;10677;50.942;4.028;2023-02-12T00:56:31;10.30;99.90
21037;DHT22;10677;50.942;4.028;2023-02-12T00:58:57;10.20;99.90
21037;DHT22;10677;50.942;4.028;2023-02-12T01:01:23;10.20;99.90
21037;DHT22;10677;50.942;4.028;2023-02-12T01:03:49;10.20;99.90
21037;DHT22;10677;50.942;4.028;2023-02-12T01:06:14;10.10;99.90
21037;DHT22;10677;50.942;4.028;2023-02-12T01:08:40;10.10;99.90
21037;DHT22;10677;50.942;4.028;2023-02-12T01:11:07;10.10;99.90
21037;DHT22;10677;50.942;4.028;2023-02-12T01:13:33;10.20;99.90
21037;DHT22;10677;50.942;4.028;2023-02-12T01:16:20;10.20;99.90
21037;DHT22;10677;50.942;4.028;2023-02-12T01:18:47;10.30;99.90
21037;DHT22;10677;50.942;4.028;2023-02-12T01:21:21;10.40;99.90
21037;DHT22;10677;50.942;4.028;2023-02-12T01:23:48;10.30;99.90
21037;DHT22;10677;50.942;4.028;2023-02-12T01:26:14;10.20;99.90
21037;DHT22;10677;50.942;4.028;2023-02-12T01:28:43;10.20;99.90
21037;DHT22;10677;50.942;4.028;2023-02-12T01:31:14;10.10;99.90
21037;DHT22;10677;50.942;4.028;2023-02-12T01:33:40;10.10;99.90
21037;DHT22;10677;50.942;4.028;2023-02-12T01:36:07;10.10;99.90
21037;DHT22;10677;50.942;4.028;2023-02-12T01:38:32;10.10;99.90
21037;DHT22;10677;50.942;4.028;2023-02-12T01:41:03;10.00;99.90
21037;DHT22;10677;50.942;4.028;2023-02-12T01:43:29;9.90;99.90
21037;DHT22;10677;50.942;4.028;2023-02-12T01:45:58;9.80;99.90
21037;DHT22;10677;50.942;4.028;2023-02-12T01:48:26;9.80;99.90
21037;DHT22;10677;50.942;4.028;2023-02-12T01:50:53;9.80;99.90
21037;DHT22;10677;50.942;4.028;2023-02-12T01:53:21;10.00;99.90
21037;DHT22;10677;50.942;4.028;2023-02-12T01:55:51;9.90;99.90
21037;DHT22;10677;50.942;4.028;2023-02-12T01:58:18;9.80;99.90
21037;DHT22;10677;50.942;4.028;2023-02-12T02:00:44;9.80;99.90
21037;DHT22;10677;50.942;4.028;2023-02-12T02:03:10;9.80;99.90
21037;DHT22;10677;50.942;4.028;2023-02-12T02:05:53;9.80;99.90
21037;DHT22;10677;50.942;4.028;2023-02-12T02:08:21;9.80;99.90
21037;DHT22;10677;50.942;4.028;2023-02-12T02:10:48;9.90;99.90
21037;DHT22;10677;50.942;4.028;2023-02-12T02:13:14;10.00;99.90
21037;DHT22;10677;50.942;4.028;2023-02-12T02:16:02;10.10;99.90
21037;DHT22;10677;50.942;4.028;2023-02-12T02:18:46;10.00;99.90
21037;DHT22;10677;50.942;4.028;2023-02-12T02:32:27;10.10;99.90
21037;DHT22;10677;50.942;4.028;2023-02-12T02:35:10;10.20;99.90
21037;DHT22;10677;50.942;4.028;2023-02-12T02:37:44;10.20;99.90
21037;DHT22;10677;50.942;4.028;2023-02-12T02:40:23;10.20;99.90
21037;DHT22;10677;50.942;4.028;2023-02-12T02:43:06;10.00;99.90
21037;DHT22;10677;50.942;4.028;2023-02-12T02:45:44;10.00;99.90
21037;DHT22;10677;50.942;4.028;2023-02-12T02:48:18;10.00;99.90
21037;DHT22;10677;50.942;4.028;2023-02-12T02:50:48;10.10;99.90
21037;DHT22;10677;50.942;4.028;2023-02-12T02:53:21;10.20;99.90
21037;DHT22;10677;50.942;4.028;2023-02-12T02:55:52;10.00;99.90
21037;DHT22;10677;50.942;4.028;2023-02-12T02:58:25;9.60;99.90
21037;DHT22;10677;50.942;4.028;2023-02-12T03:01:02;9.60;99.90
21037;DHT22;10677;50.942;4.028;2023-02-12T03:03:41;9.60;99.90
21037;DHT22;10677;50.942;4.028;2023-02-12T03:09:03;9.60;99.90
21037;DHT22;10677;50.942;4.028;2023-02-12T03:11:32;9.70;99.90
21037;DHT22;10677;50.942;4.028;2023-02-12T03:14:20;9.80;99.90
21037;DHT22;10677;50.942;4.028;2023-02-12T03:19:28;9.60;99.90
21037;DHT22;10677;50.942;4.028;2023-02-12T03:21:57;9.40;99.90
21037;DHT22;10677;50.942;4.028;2023-02-12T03:29:50;9.80;99.90
21037;DHT22;10677;50.942;4.028;2023-02-12T03:40:33;9.80;99.90
21037;DHT22;10677;50.942;4.028;2023-02-12T03:45:41;9.70;99.90
21037;DHT22;10677;50.942;4.028;2023-02-12T03:48:10;9.70;99.90
21037;DHT22;10677;50.942;4.028;2023-02-12T03:53:13;9.80;99.90
21037;DHT22;10677;50.942;4.028;2023-02-12T03:55:41;9.60;99.90
21037;DHT22;10677;50.942;4.028;2023-02-12T03:58:12;9.80;99.90
21037;DHT22;10677;50.942;4.028;2023-02-12T04:00:40;9.80;99.90
21037;DHT22;10677;50.942;4.028;2023-02-12T04:03:06;9.80;99.90
21037;DHT22;10677;50.942;4.028;2023-02-12T04:05:32;9.80;99.90
21037;DHT22;10677;50.942;4.028;2023-02-12T04:07:58;10.00;99.90
21037;DHT22;10677;50.942;4.028;2023-02-12T04:13:23;10.10;99.90
21037;DHT22;10677;50.942;4.028;2023-02-12T04:18:39;10.10;99.90
21037;DHT22;10677;50.942;4.028;2023-02-12T04:29:24;9.90;99.90
21037;DHT22;10677;50.942;4.028;2023-02-12T04:32:14;10.00;99.90
21037;DHT22;10677;50.942;4.028;2023-02-12T04:37:17;10.10;99.90
21037;DHT22;10677;50.942;4.028;2023-02-12T04:39:44;10.00;99.90
21037;DHT22;10677;50.942;4.028;2023-02-12T04:42:10;10.10;99.90
21037;DHT22;10677;50.942;4.028;2023-02-12T04:44:39;10.10;99.90
21037;DHT22;10677;50.942;4.028;2023-02-12T04:47:05;9.90;99.90
21037;DHT22;10677;50.942;4.028;2023-02-12T04:49:31;9.90;99.90
21037;DHT22;10677;50.942;4.028;2023-02-12T04:51:56;9.90;99.90
21037;DHT22;10677;50.942;4.028;2023-02-12T04:54:23;9.90;99.90
21037;DHT22;10677;50.942;4.028;2023-02-12T04:56:49;9.80;99.90
21037;DHT22;10677;50.942;4.028;2023-02-12T04:59:15;9.90;99.90
21037;DHT22;10677;50.942;4.028;2023-02-12T05:01:41;9.90;99.90
21037;DHT22;10677;50.942;4.028;2023-02-12T05:04:09;10.00;99.90
21037;DHT22;10677;50.942;4.028;2023-02-12T05:06:37;9.90;99.90
21037;DHT22;10677;50.942;4.028;2023-02-12T05:09:04;9.90;99.90
21037;DHT22;10677;50.942;4.028;2023-02-12T05:11:31;9.90;99.90
21037;DHT22;10677;50.942;4.028;2023-02-12T05:13:57;9.80;99.90
21037;DHT22;10677;50.942;4.028;2023-02-12T05:16:24;9.80;99.90
21037;DHT22;10677;50.942;4.028;2023-02-12T05:18:49;9.70;99.90
21037;DHT22;10677;50.942;4.028;2023-02-12T05:21:16;9.70;99.90
21037;DHT22;10677;50.942;4.028;2023-02-12T05:23:42;9.60;99.90
21037;DHT22;10677;50.942;4.028;2023-02-12T05:26:13;9.70;99.90
21037;DHT22;10677;50.942;4.028;2023-02-12T05:28:39;9.80;99.90
21037;DHT22;10677;50.942;4.028;2023-02-12T05:31:06;9.80;99.90
21037;DHT22;10677;50.942;4.028;2023-02-12T05:33:33;9.80;99.90
21037;DHT22;10677;50.942;4.028;2023-02-12T05:36:07;9.90;99.90
21037;DHT22;10677;50.942;4.028;2023-02-12T05:38:34;9.90;99.90
21037;DHT22;10677;50.942;4.028;2023-02-12T05:41:04;10.00;99.90
21037;DHT22;10677;50.942;4.028;2023-02-12T05:43:31;9.90;99.90
21037;DHT22;10677;50.942;4.028;2023-02-12T05:46:01;9.90;99.90
21037;DHT22;10677;50.942;4.028;2023-02-12T05:48:27;9.80;99.90
21037;DHT22;10677;50.942;4.028;2023-02-12T05:50:53;9.80;99.90
21037;DHT22;10677;50.942;4.028;2023-02-12T05:53:19;9.60;99.90
21037;DHT22;10677;50.942;4.028;2023-02-12T05:55:45;9.60;99.90
21037;DHT22;10677;50.942;4.028;2023-02-12T05:58:11;9.70;99.90
21037;DHT22;10677;50.942;4.028;2023-02-12T06:00:36;9.70;99.90
21037;DHT22;10677;50.942;4.028;2023-02-12T06:03:02;9.80;99.90
21037;DHT22;10677;50.942;4.028;2023-02-12T06:05:28;9.80;99.90
21037;DHT22;10677;50.942;4.028;2023-02-12T06:07:53;9.80;99.90
21037;DHT22;10677;50.942;4.028;2023-02-12T06:10:19;9.90;99.90
21037;DHT22;10677;50.942;4.028;2023-02-12T06:12:45;9.80;99.90
21037;DHT22;10677;50.942;4.028;2023-02-12T06:15:10;9.80;99.90
21037;DHT22;10677;50.942;4.028;2023-02-12T06:17:36;9.70;99.90
21037;DHT22;10677;50.942;4.028;2023-02-12T06:20:01;9.70;99.90
21037;DHT22;10677;50.942;4.028;2023-02-12T06:22:27;9.60;99.90
21037;DHT22;10677;50.942;4.028;2023-02-12T06:24:53;9.60;99.90
21037;DHT22;10677;50.942;4.028;2023-02-12T06:27:19;9.50;99.90
21037;DHT22;10677;50.942;4.028;2023-02-12T06:29:44;9.50;99.90
21037;DHT22;10677;50.942;4.028;2023-02-12T06:32:10;9.60;99.90
21037;DHT22;10677;50.942;4.028;2023-02-12T06:34:38;9.60;99.90
21037;DHT22;10677;50.942;4.028;2023-02-12T06:37:04;9.70;99.90
21037;DHT22;10677;50.942;4.028;2023-02-12T06:39:30;9.80;99.90
21037;DHT22;10677;50.942;4.028;2023-02-12T06:41:56;9.80;99.90
21037;DHT22;10677;50.942;4.028;2023-02-12T06:44:21;9.80;99.90
21037;DHT22;10677;50.942;4.028;2023-02-12T06:46:47;9.80;99.90
21037;DHT22;10677;50.942;4.028;2023-02-12T06:49:13;9.70;99.90
21037;DHT22;10677;50.942;4.028;2023-02-12T06:51:39;9.60;99.90
21037;DHT22;10677;50.942;4.028;2023-02-12T06:54:11;9.70;99.90
21037;DHT22;10677;50.942;4.028;2023-02-12T06:56:37;9.70;99.90
21037;DHT22;10677;50.942;4.028;2023-02-12T06:59:02;9.60;99.90
21037;DHT22;10677;50.942;4.028;2023-02-12T07:01:29;9.60;99.90
21037;DHT22;10677;50.942;4.028;2023-02-12T07:03:57;9.60;99.90
21037;DHT22;10677;50.942;4.028;2023-02-12T07:06:23;9.60;99.90
21037;DHT22;10677;50.942;4.028;2023-02-12T07:08:50;9.60;99.90
21037;DHT22;10677;50.942;4.028;2023-02-12T07:11:15;9.60;99.90
21037;DHT22;10677;50.942;4.028;2023-02-12T07:13:42;9.60;99.90
21037;DHT22;10677;50.942;4.028;2023-02-12T07:16:13;9.50;99.90
21037;DHT22;10677;50.942;4.028;2023-02-12T07:18:39;9.50;99.90
21037;DHT22;10677;50.942;4.028;2023-02-12T07:21:06;9.50;99.90
21037;DHT22;10677;50.942;4.028;2023-02-12T07:23:33;9.60;99.90
21037;DHT22;10677;50.942;4.028;2023-02-12T07:26:02;9.60;99.90
21037;DHT22;10677;50.942;4.028;2023-02-12T07:28:29;9.70;99.90
21037;DHT22;10677;50.942;4.028;2023-02-12T07:31:19;9.80;99.90
21037;DHT22;10677;50.942;4.028;2023-02-12T07:33:44;9.90;99.90
21037;DHT22;10677;50.942;4.028;2023-02-12T07:36:17;9.80;99.90
21037;DHT22;10677;50.942;4.028;2023-02-12T07:38:44;9.80;99.90
21037;DHT22;10677;50.942;4.028;2023-02-12T07:41:15;9.70;99.90
21037;DHT22;10677;50.942;4.028;2023-02-12T07:43:42;9.70;99.90
21037;DHT22;10677;50.942;4.028;2023-02-12T07:46:14;9.80;99.90
21037;DHT22;10677;50.942;4.028;2023-02-12T07:48:42;9.80;99.90
21037;DHT22;10677;50.942;4.028;2023-02-12T07:51:10;9.90;99.90
21037;DHT22;10677;50.942;4.028;2023-02-12T07:53:36;10.00;99.90
21037;DHT22;10677;50.942;4.028;2023-02-12T07:56:13;10.00;99.90
21037;DHT22;10677;50.942;4.028;2023-02-12T07:58:40;9.80;99.90
21037;DHT22;10677;50.942;4.028;2023-02-12T08:01:31;9.70;99.90
21037;DHT22;10677;50.942;4.028;2023-02-12T08:03:59;9.70;99.90
21037;DHT22;10677;50.942;4.028;2023-02-12T08:06:27;9.80;99.90
21037;DHT22;10677;50.942;4.028;2023-02-12T08:08:54;9.90;99.90
21037;DHT22;10677;50.942;4.028;2023-02-12T08:11:20;9.90;99.90
21037;DHT22;10677;50.942;4.028;2023-02-12T08:13:46;10.00;99.90
21037;DHT22;10677;50.942;4.028;2023-02-12T08:16:14;9.90;99.90
21037;DHT22;10677;50.942;4.028;2023-02-12T08:18:40;9.50;99.90
21037;DHT22;10677;50.942;4.028;2023-02-12T08:21:09;9.30;99.90
21037;DHT22;10677;50.942;4.028;2023-02-12T08:23:36;9.20;99.90
21037;DHT22;10677;50.942;4.028;2023-02-12T08:28:46;9.50;99.90
21037;DHT22;10677;50.942;4.028;2023-02-12T08:31:18;9.70;99.90
21037;DHT22;10677;50.942;4.028;2023-02-12T08:33:46;9.60;99.90
21037;DHT22;10677;50.942;4.028;2023-02-12T08:36:14;9.80;99.90
21037;DHT22;10677;50.942;4.028;2023-02-12T08:38:42;9.90;99.90
21037;DHT22;10677;50.942;4.028;2023-02-12T08:41:13;9.90;99.90
21037;DHT22;10677;50.942;4.028;2023-02-12T08:43:39;10.00;99.90
21037;DHT22;10677;50.942;4.028;2023-02-12T08:46:15;9.90;99.90
21037;DHT22;10677;50.942;4.028;2023-02-12T08:48:42;9.90;99.90
21037;DHT22;10677;50.942;4.028;2023-02-12T08:51:20;9.90;99.90
21037;DHT22;10677;50.942;4.028;2023-02-12T08:53:50;9.90;99.90
21037;DHT22;10677;50.942;4.028;2023-02-12T08:56:17;9.50;99.90
21037;DHT22;10677;50.942;4.028;2023-02-12T08:58:44;9.20;99.90
21037;DHT22;10677;50.942;4.028;2023-02-12T09:01:19;9.00;99.90
21037;DHT22;10677;50.942;4.028;2023-02-12T09:03:45;9.00;99.90
21037;DHT22;10677;50.942;4.028;2023-02-12T09:06:12;8.90;99.90
21037;DHT22;10677;50.942;4.028;2023-02-12T09:08:38;8.90;99.90
21037;DHT22;10677;50.942;4.028;2023-02-12T09:11:10;8.90;99.90
21037;DHT22;10677;50.942;4.028;2023-02-12T09:13:37;8.80;99.90
21037;DHT22;10677;50.942;4.028;2023-02-12T09:16:05;9.00;99.90
21037;DHT22;10677;50.942;4.028;2023-02-12T09:18:32;9.10;99.90
21037;DHT22;10677;50.942;4.028;2023-02-12T09:21:04;9.20;99.90
21037;DHT22;10677;50.942;4.028;2023-02-12T09:23:30;9.50;99.90
21037;DHT22;10677;50.942;4.028;2023-02-12T09:25:55;9.80;99.90
21037;DHT22;10677;50.942;4.028;2023-02-12T09:28:21;9.90;99.90
21037;DHT22;10677;50.942;4.028;2023-02-12T09:30:47;9.70;99.90
21037;DHT22;10677;50.942;4.028;2023-02-12T09:33:13;9.60;99.90
21037;DHT22;10677;50.942;4.028;2023-02-12T09:35:39;9.70;99.90
21037;DHT22;10677;50.942;4.028;2023-02-12T09:38:05;9.60;99.90
21037;DHT22;10677;50.942;4.028;2023-02-12T09:43:30;9.60;99.90
21037;DHT22;10677;50.942;4.028;2023-02-12T09:46:09;9.30;99.90
21037;DHT22;10677;50.942;4.028;2023-02-12T09:48:59;9.20;99.90
21037;DHT22;10677;50.942;4.028;2023-02-12T09:51:28;9.20;99.90
21037;DHT22;10677;50.942;4.028;2023-02-12T09:54:06;9.50;99.90
21037;DHT22;10677;50.942;4.028;2023-02-12T09:56:36;9.30;99.90
21037;DHT22;10677;50.942;4.028;2023-02-12T09:59:05;9.20;99.90
21037;DHT22;10677;50.942;4.028;2023-02-12T10:01:31;9.20;99.90
21037;DHT22;10677;50.942;4.028;2023-02-12T10:04:00;9.30;99.90
21037;DHT22;10677;50.942;4.028;2023-02-12T10:06:33;9.40;99.90
21037;DHT22;10677;50.942;4.028;2023-02-12T10:12:06;9.40;99.90
21037;DHT22;10677;50.942;4.028;2023-02-12T10:17:41;9.50;99.90
21037;DHT22;10677;50.942;4.028;2023-02-12T10:23:29;9.40;99.90
21037;DHT22;10677;50.942;4.028;2023-02-12T10:25:52;9.70;99.90
21037;DHT22;10677;50.942;4.028;2023-02-12T10:28:27;10.20;99.90
21037;DHT22;10677;50.942;4.028;2023-02-12T10:30:59;10.60;99.90
21037;DHT22;10677;50.942;4.028;2023-02-12T10:33:39;10.90;99.90
21037;DHT22;10677;50.942;4.028;2023-02-12T10:38:42;11.20;99.90
21037;DHT22;10677;50.942;4.028;2023-02-12T10:41:13;11.50;99.90
21037;DHT22;10677;50.942;4.028;2023-02-12T10:43:40;11.50;99.90
21037;DHT22;10677;50.942;4.028;2023-02-12T10:46:12;11.20;99.90
21037;DHT22;10677;50.942;4.028;2023-02-12T10:48:41;11.30;99.90
21037;DHT22;10677;50.942;4.028;2023-02-12T10:53:40;11.70;99.90
21037;DHT22;10677;50.942;4.028;2023-02-12T10:56:17;11.70;99.90
21037;DHT22;10677;50.942;4.028;2023-02-12T11:01:31;11.70;99.90
21037;DHT22;10677;50.942;4.028;2023-02-12T11:03:58;11.70;99.90
21037;DHT22;10677;50.942;4.028;2023-02-12T11:06:28;11.80;99.90
21037;DHT22;10677;50.942;4.028;2023-02-12T11:08:56;11.70;99.90
21037;DHT22;10677;50.942;4.028;2023-02-12T11:11:27;11.70;99.90
21037;DHT22;10677;50.942;4.028;2023-02-12T11:16:38;11.90;99.90
21037;DHT22;10677;50.942;4.028;2023-02-12T11:19:19;12.00;99.90
21037;DHT22;10677;50.942;4.028;2023-02-12T11:21:46;11.80;99.90
21037;DHT22;10677;50.942;4.028;2023-02-12T11:24:30;11.80;99.90
21037;DHT22;10677;50.942;4.028;2023-02-12T11:27:25;11.90;99.90
21037;DHT22;10677;50.942;4.028;2023-02-12T11:30:19;12.20;99.90
21037;DHT22;10677;50.942;4.028;2023-02-12T11:32:45;12.40;99.90
21037;DHT22;10677;50.942;4.028;2023-02-12T11:35:18;12.50;99.90
21037;DHT22;10677;50.942;4.028;2023-02-12T11:37:51;12.70;99.90
21037;DHT22;10677;50.942;4.028;2023-02-12T11:40:38;12.60;99.90
21037;DHT22;10677;50.942;4.028;2023-02-12T11:43:05;12.80;99.90
21037;DHT22;10677;50.942;4.028;2023-02-12T11:45:36;12.80;99.90
21037;DHT22;10677;50.942;4.028;2023-02-12T11:48:17;12.50;99.90
21037;DHT22;10677;50.942;4.028;2023-02-12T11:50:47;12.50;99.90
21037;DHT22;10677;50.942;4.028;2023-02-12T11:53:23;12.20;99.90
21037;DHT22;10677;50.942;4.028;2023-02-12T11:55:55;12.20;99.90
21037;DHT22;10677;50.942;4.028;2023-02-12T11:58:23;12.20;99.90
21037;DHT22;10677;50.942;4.028;2023-02-12T12:00:52;12.20;99.90
21037;DHT22;10677;50.942;4.028;2023-02-12T12:03:30;12.10;99.90
21037;DHT22;10677;50.942;4.028;2023-02-12T12:06:16;11.20;99.90
21037;DHT22;10677;50.942;4.028;2023-02-12T12:11:24;11.60;99.90
21037;DHT22;10677;50.942;4.028;2023-02-12T12:16:51;11.90;99.90
21037;DHT22;10677;50.942;4.028;2023-02-12T12:23:00;11.10;99.90
21037;DHT22;10677;50.942;4.028;2023-02-12T12:25:46;10.90;99.90
21037;DHT22;10677;50.942;4.028;2023-02-12T12:28:31;11.10;99.90
21037;DHT22;10677;50.942;4.028;2023-02-12T12:31:09;11.40;99.90
21037;DHT22;10677;50.942;4.028;2023-02-12T12:33:45;11.50;99.90
21037;DHT22;10677;50.942;4.028;2023-02-12T12:47:20;10.60;99.90
21037;DHT22;10677;50.942;4.028;2023-02-12T12:52:59;10.80;99.90
21037;DHT22;10677;50.942;4.028;2023-02-12T12:55:47;10.80;99.90
21037;DHT22;10677;50.942;4.028;2023-02-12T13:18:03;12.40;99.90
21037;DHT22;10677;50.942;4.028;2023-02-12T13:21:09;12.60;99.90
21037;DHT22;10677;50.942;4.028;2023-02-12T13:28:37;12.90;99.90
21037;DHT22;10677;50.942;4.028;2023-02-12T13:31:12;13.00;99.90
21037;DHT22;10677;50.942;4.028;2023-02-12T13:33:42;12.80;99.90
21037;DHT22;10677;50.942;4.028;2023-02-12T13:36:12;12.50;99.90
21037;DHT22;10677;50.942;4.028;2023-02-12T13:38:43;12.40;99.90
21037;DHT22;10677;50.942;4.028;2023-02-12T13:41:10;12.00;99.90
21037;DHT22;10677;50.942;4.028;2023-02-12T13:49:31;12.10;99.90
21037;DHT22;10677;50.942;4.028;2023-02-12T13:52:28;12.10;99.90
21037;DHT22;10677;50.942;4.028;2023-02-12T13:55:01;12.10;99.90
21037;DHT22;10677;50.942;4.028;2023-02-12T13:57:30;12.20;99.90
21037;DHT22;10677;50.942;4.028;2023-02-12T13:59:56;12.10;99.90
21037;DHT22;10677;50.942;4.028;2023-02-12T14:08:00;12.20;99.90
21037;DHT22;10677;50.942;4.028;2023-02-12T14:10:34;12.20;99.90
21037;DHT22;10677;50.942;4.028;2023-02-12T14:13:26;12.20;99.90
21037;DHT22;10677;50.942;4.028;2023-02-12T14:16:18;12.40;99.90
21037;DHT22;10677;50.942;4.028;2023-02-12T14:18:44;12.20;99.90
21037;DHT22;10677;50.942;4.028;2023-02-12T14:23:39;12.30;99.90
21037;DHT22;10677;50.942;4.028;2023-02-12T14:26:16;12.40;99.90
21037;DHT22;10677;50.942;4.028;2023-02-12T14:28:51;12.50;99.90
21037;DHT22;10677;50.942;4.028;2023-02-12T14:33:46;12.50;99.90
21037;DHT22;10677;50.942;4.028;2023-02-12T14:38:59;12.40;99.90
21037;DHT22;10677;50.942;4.028;2023-02-12T14:41:33;12.40;99.90
21037;DHT22;10677;50.942;4.028;2023-02-12T14:47:02;12.10;99.90
21037;DHT22;10677;50.942;4.028;2023-02-12T14:54:45;11.80;99.90
21037;DHT22;10677;50.942;4.028;2023-02-12T14:59:44;11.80;99.90
21037;DHT22;10677;50.942;4.028;2023-02-12T15:02:22;11.60;99.90
21037;DHT22;10677;50.942;4.028;2023-02-12T15:04:50;11.60;99.90
21037;DHT22;10677;50.942;4.028;2023-02-12T15:07:43;11.70;99.90
21037;DHT22;10677;50.942;4.028;2023-02-12T15:10:14;11.70;99.90
21037;DHT22;10677;50.942;4.028;2023-02-12T15:12:53;11.70;99.90
21037;DHT22;10677;50.942;4.028;2023-02-12T15:16:11;11.70;99.90
21037;DHT22;10677;50.942;4.028;2023-02-12T15:18:54;11.70;99.90
21037;DHT22;10677;50.942;4.028;2023-02-12T15:21:28;11.60;99.90
21037;DHT22;10677;50.942;4.028;2023-02-12T15:24:07;11.50;99.90
21037;DHT22;10677;50.942;4.028;2023-02-12T15:26:39;11.50;99.90
21037;DHT22;10677;50.942;4.028;2023-02-12T15:29:13;11.60;99.90
21037;DHT22;10677;50.942;4.028;2023-02-12T15:31:40;11.60;99.90
21037;DHT22;10677;50.942;4.028;2023-02-12T15:34:06;11.70;99.90
21037;DHT22;10677;50.942;4.028;2023-02-12T15:36:32;11.70;99.90
21037;DHT22;10677;50.942;4.028;2023-02-12T15:39:04;11.50;99.90
21037;DHT22;10677;50.942;4.028;2023-02-12T15:41:39;11.40;99.90
21037;DHT22;10677;50.942;4.028;2023-02-12T15:44:30;11.40;99.90
21037;DHT22;10677;50.942;4.028;2023-02-12T15:47:08;11.40;99.90
21037;DHT22;10677;50.942;4.028;2023-02-12T15:49:37;11.30;99.90
21037;DHT22;10677;50.942;4.028;2023-02-12T15:52:08;11.30;99.90
21037;DHT22;10677;50.942;4.028;2023-02-12T15:54:36;11.10;99.90
21037;DHT22;10677;50.942;4.028;2023-02-12T15:57:10;11.10;99.90
21037;DHT22;10677;50.942;4.028;2023-02-12T15:59:36;10.90;99.90
21037;DHT22;10677;50.942;4.028;2023-02-12T16:02:02;11.10;99.90
21037;DHT22;10677;50.942;4.028;2023-02-12T16:04:33;11.00;99.90
21037;DHT22;10677;50.942;4.028;2023-02-12T16:07:06;10.90;99.90
21037;DHT22;10677;50.942;4.028;2023-02-12T16:09:35;11.00;99.90
21037;DHT22;10677;50.942;4.028;2023-02-12T16:12:04;10.90;99.90
21037;DHT22;10677;50.942;4.028;2023-02-12T16:14:52;10.90;99.90
21037;DHT22;10677;50.942;4.028;2023-02-12T16:17:35;10.80;99.90
21037;DHT22;10677;50.942;4.028;2023-02-12T16:22:32;10.70;99.90
21037;DHT22;10677;50.942;4.028;2023-02-12T16:24:59;10.60;99.90
21037;DHT22;10677;50.942;4.028;2023-02-12T16:27:30;10.50;99.90
21037;DHT22;10677;50.942;4.028;2023-02-12T16:30:00;10.60;99.90
21037;DHT22;10677;50.942;4.028;2023-02-12T16:32:36;10.70;99.90
21037;DHT22;10677;50.942;4.028;2023-02-12T16:35:28;10.60;99.90
21037;DHT22;10677;50.942;4.028;2023-02-12T16:46:50;10.70;99.90
21037;DHT22;10677;50.942;4.028;2023-02-12T16:49:19;10.60;99.90
21037;DHT22;10677;50.942;4.028;2023-02-12T16:51:45;10.60;99.90
21037;DHT22;10677;50.942;4.028;2023-02-12T16:54:30;10.50;99.90
21037;DHT22;10677;50.942;4.028;2023-02-12T16:56:58;10.50;99.90
21037;DHT22;10677;50.942;4.028;2023-02-12T16:59:24;10.60;99.90
21037;DHT22;10677;50.942;4.028;2023-02-12T17:01:59;10.50;99.90
21037;DHT22;10677;50.942;4.028;2023-02-12T17:04:25;10.50;99.90
21037;DHT22;10677;50.942;4.028;2023-02-12T17:06:50;10.50;99.90
21037;DHT22;10677;50.942;4.028;2023-02-12T17:09:16;10.50;99.90
21037;DHT22;10677;50.942;4.028;2023-02-12T17:11:42;10.30;99.90
21037;DHT22;10677;50.942;4.028;2023-02-12T17:14:14;10.20;99.90
21037;DHT22;10677;50.942;4.028;2023-02-12T17:16:40;10.20;99.90
21037;DHT22;10677;50.942;4.028;2023-02-12T17:19:05;10.30;99.90
21037;DHT22;10677;50.942;4.028;2023-02-12T17:21:43;10.40;99.90
21037;DHT22;10677;50.942;4.028;2023-02-12T17:24:19;10.30;99.90
21037;DHT22;10677;50.942;4.028;2023-02-12T17:26:45;10.30;99.90
21037;DHT22;10677;50.942;4.028;2023-02-12T17:29:11;10.20;99.90
21037;DHT22;10677;50.942;4.028;2023-02-12T17:31:38;10.30;99.90
21037;DHT22;10677;50.942;4.028;2023-02-12T17:34:04;10.30;99.90
21037;DHT22;10677;50.942;4.028;2023-02-12T17:36:30;10.20;99.90
21037;DHT22;10677;50.942;4.028;2023-02-12T17:38:55;10.30;99.90
21037;DHT22;10677;50.942;4.028;2023-02-12T17:41:21;10.40;99.90
21037;DHT22;10677;50.942;4.028;2023-02-12T17:43:47;10.30;99.90
21037;DHT22;10677;50.942;4.028;2023-02-12T17:46:20;10.40;99.90
21037;DHT22;10677;50.942;4.028;2023-02-12T17:48:47;10.50;99.90
21037;DHT22;10677;50.942;4.028;2023-02-12T17:51:12;10.40;99.90
21037;DHT22;10677;50.942;4.028;2023-02-12T17:53:39;10.40;99.90
21037;DHT22;10677;50.942;4.028;2023-02-12T17:56:12;10.40;99.90
21037;DHT22;10677;50.942;4.028;2023-02-12T17:58:40;10.40;99.90
21037;DHT22;10677;50.942;4.028;2023-02-12T18:01:08;10.40;99.90
21037;DHT22;10677;50.942;4.028;2023-02-12T18:03:34;10.40;99.90
21037;DHT22;10677;50.942;4.028;2023-02-12T18:06:00;10.30;99.90
21037;DHT22;10677;50.942;4.028;2023-02-12T18:08:26;10.30;99.90
21037;DHT22;10677;50.942;4.028;2023-02-12T18:10:51;10.40;99.90
21037;DHT22;10677;50.942;4.028;2023-02-12T18:13:17;10.40;99.90
21037;DHT22;10677;50.942;4.028;2023-02-12T18:15:43;10.40;99.90
21037;DHT22;10677;50.942;4.028;2023-02-12T18:18:08;10.50;99.90
21037;DHT22;10677;50.942;4.028;2023-02-12T18:20:34;10.50;99.90
21037;DHT22;10677;50.942;4.028;2023-02-12T18:23:00;10.60;99.90
21037;DHT22;10677;50.942;4.028;2023-02-12T18:25:28;10.60;99.90
21037;DHT22;10677;50.942;4.028;2023-02-12T18:27:53;10.60;99.90
21037;DHT22;10677;50.942;4.028;2023-02-12T18:30:19;10.50;99.90
21037;DHT22;10677;50.942;4.028;2023-02-12T18:32:45;10.60;99.90
21037;DHT22;10677;50.942;4.028;2023-02-12T18:35:10;10.60;99.90
21037;DHT22;10677;50.942;4.028;2023-02-12T18:37:36;10.60;99.90
21037;DHT22;10677;50.942;4.028;2023-02-12T18:40:02;10.60;99.90
21037;DHT22;10677;50.942;4.028;2023-02-12T18:42:28;10.50;99.90